Time;durP1;ratioP1;P1;durP2;ratioP2;P2;SDS_P1;SDS_P2;PMS_P1;PMS_P2;Temp;Humidity;BMP_temperature;BMP_pressure;BME280_temperature;BME280_humidity;BME280_pressure;Samples;Min_cycle;Max_cycle;Signal;HPM_P1;HPM_P2
2023/09/15 00:01:34;;;;;;;7.30;3.55;;;;;;;;;;4968831;28;99256;-89
2023/09/15 00:04:05;;;;;;;8.63;3.08;;;;;;;;;;4960873;28;102413;-85
2023/09/15 00:06:32;;;;;;;7.10;2.90;;;;;;;;;;4967284;28;99552;-85
2023/09/15 00:08:59;;;;;;;7.35;2.97;;;;;;;;;;4968186;28;98792;-85
2023/09/15 00:11:39;;;;;;;6.50;3.00;;;;;;;;;;4969468;28;98910;-86
2023/09/15 00:14:10;;;;;;;7.55;3.08;;;;;;;;;;4967308;28;99527;-86
2023/09/15 00:16:38;;;;;;;7.00;2.85;;;;;;;;;;4980192;28;98760;-86
2023/09/15 00:19:06;;;;;;;8.30;3.10;;;;;;;;;;4984939;28;99088;-87
2023/09/15 00:21:33;;;;;;;6.25;2.88;;;;;;;;;;4984124;28;98496;-85
2023/09/15 00:24:01;;;;;;;7.18;3.00;;;;;;;;;;4985818;28;98899;-86
2023/09/15 00:26:30;;;;;;;8.30;2.85;;;;;;;;;;4988634;28;100491;-86
2023/09/15 00:28:59;;;;;;;6.18;3.00;;;;;;;;;;4984479;28;98559;-87
2023/09/15 00:31:25;;;;;;;6.07;2.88;;;;;;;;;;4989746;28;99116;-86
2023/09/15 00:33:52;;;;;;;6.18;2.88;;;;;;;;;;4983734;28;99046;-86
2023/09/15 00:36:19;;;;;;;7.18;3.10;;;;;;;;;;4971296;28;98645;-86
2023/09/15 00:38:46;;;;;;;6.15;3.10;;;;;;;;;;5020193;22;99340;-81
2023/09/15 00:41:14;;;;;;;7.25;3.08;;;;;;;;;;5043577;28;99343;-82
2023/09/15 00:43:44;;;;;;;6.50;2.83;;;;;;;;;;5022244;28;98564;-82
2023/09/15 00:46:12;;;;;;;7.18;3.55;;;;;;;;;;5001945;28;98760;-81
2023/09/15 00:48:48;;;;;;;7.50;2.92;;;;;;;;;;5033787;28;98099;-81
2023/09/15 00:51:24;;;;;;;6.75;3.10;;;;;;;;;;5021897;28;101009;-81
2023/09/15 00:54:00;;;;;;;7.68;2.90;;;;;;;;;;5021395;28;99015;-82
2023/09/15 00:56:32;;;;;;;7.72;3.20;;;;;;;;;;5021992;28;98205;-81
2023/09/15 00:59:05;;;;;;;6.70;2.95;;;;;;;;;;5021109;28;99999;-82
2023/09/15 01:01:39;;;;;;;7.50;3.00;;;;;;;;;;5019979;28;99277;-82
2023/09/15 01:04:11;;;;;;;7.05;2.90;;;;;;;;;;5019723;28;98342;-82
2023/09/15 01:06:42;;;;;;;6.05;2.90;;;;;;;;;;5038616;28;98880;-81
2023/09/15 01:09:14;;;;;;;6.85;3.20;;;;;;;;;;5041055;28;97794;-81
2023/09/15 01:11:52;;;;;;;7.38;3.00;;;;;;;;;;5022676;28;98190;-81
2023/09/15 01:14:21;;;;;;;8.07;3.10;;;;;;;;;;5039774;28;99137;-81
2023/09/15 01:17:02;;;;;;;7.40;3.00;;;;;;;;;;5018296;28;98993;-81
2023/09/15 01:19:30;;;;;;;;;;;;;;;;;;5012879;28;100759;-81
2023/09/15 01:22:01;;;;;;;7.93;3.17;;;;;;;;;;5027767;28;98544;-81
2023/09/15 01:24:31;;;;;;;7.65;3.33;;;;;;;;;;5012426;28;98420;-81
2023/09/15 01:27:20;;;;;;;8.70;3.30;;;;;;;;;;5042938;28;98791;-82
2023/09/15 01:29:58;;;;;;;5.68;2.78;;;;;;;;;;5039399;28;98213;-81
2023/09/15 01:32:25;;;;;;;8.45;3.03;;;;;;;;;;5040185;28;98364;-82
2023/09/15 01:35:08;;;;;;;6.00;2.70;;;;;;;;;;5021081;28;99588;-82
2023/09/15 01:37:39;;;;;;;9.88;3.40;;;;;;;;;;5022428;28;98074;-82
2023/09/15 01:40:10;;;;;;;6.13;2.90;;;;;;;;;;5038886;28;98413;-82
2023/09/15 01:42:46;;;;;;;6.15;2.78;;;;;;;;;;5038754;28;99907;-82
2023/09/15 01:45:13;;;;;;;7.85;3.22;;;;;;;;;;5021437;28;98168;-81
2023/09/15 01:47:47;;;;;;;7.65;3.13;;;;;;;;;;5026388;28;98737;-82
2023/09/15 01:50:16;;;;;;;7.25;3.35;;;;;;;;;;5007301;28;101325;-82
2023/09/15 01:52:47;;;;;;;7.45;3.30;;;;;;;;;;5004859;28;100217;-81
2023/09/15 01:55:15;;;;;;;6.97;3.47;;;;;;;;;;5020992;28;98624;-81
2023/09/15 01:57:45;;;;;;;7.15;2.88;;;;;;;;;;5039311;28;98487;-82
2023/09/15 02:00:16;;;;;;;6.03;3.15;;;;;;;;;;5000265;28;100058;-82
2023/09/15 02:02:44;;;;;;;6.85;3.20;;;;;;;;;;5005688;28;100371;-81
2023/09/15 02:05:21;;;;;;;7.28;3.42;;;;;;;;;;5038034;28;99127;-81
2023/09/15 02:08:00;;;;;;;7.75;3.33;;;;;;;;;;5019964;28;99998;-82
2023/09/15 02:10:37;;;;;;;7.28;3.40;;;;;;;;;;5021514;28;98775;-81
2023/09/15 02:13:07;;;;;;;7.60;3.25;;;;;;;;;;5033182;28;98513;-81
2023/09/15 02:15:35;;;;;;;7.30;3.30;;;;;;;;;;5031297;28;99244;-81
2023/09/15 02:18:09;;;;;;;6.15;3.10;;;;;;;;;;5030003;28;98163;-81
2023/09/15 02:20:37;;;;;;;7.05;3.42;;;;;;;;;;4999766;28;98379;-82
2023/09/15 02:23:07;;;;;;;6.28;3.10;;;;;;;;;;5036234;28;99203;-81
2023/09/15 02:25:41;;;;;;;6.95;3.38;;;;;;;;;;5039501;28;98399;-81
2023/09/15 02:28:11;;;;;;;7.70;3.05;;;;;;;;;;5038543;28;98082;-81
2023/09/15 02:30:42;;;;;;;6.93;3.00;;;;;;;;;;5020139;28;98621;-81
2023/09/15 02:33:18;;;;;;;9.05;3.30;;;;;;;;;;5041550;28;99247;-81
2023/09/15 02:35:54;;;;;;;7.60;3.13;;;;;;;;;;5038715;28;98723;-82
2023/09/15 02:38:33;;;;;;;7.03;3.40;;;;;;;;;;5020676;28;99331;-81
2023/09/15 02:41:04;;;;;;;8.48;3.28;;;;;;;;;;5016906;28;100689;-81
2023/09/15 02:43:36;;;;;;;6.88;3.45;;;;;;;;;;5016398;28;100530;-81
2023/09/15 02:46:06;;;;;;;7.13;3.42;;;;;;;;;;5017231;28;98190;-82
2023/09/15 02:48:39;;;;;;;7.75;3.47;;;;;;;;;;5016836;28;98607;-82
2023/09/15 02:51:14;;;;;;;7.28;3.22;;;;;;;;;;5017189;28;99553;-80
2023/09/15 02:53:45;;;;;;;7.00;3.53;;;;;;;;;;5018616;28;98100;-81
2023/09/15 02:56:24;;;;;;;8.90;3.78;;;;;;;;;;5019603;28;99976;-81
2023/09/15 02:58:59;;;;;;;7.70;3.42;;;;;;;;;;5014936;28;99070;-82
2023/09/15 03:01:29;;;;;;;6.95;3.47;;;;;;;;;;5017276;28;99475;-82
2023/09/15 03:03:56;;;;;;;7.88;3.47;;;;;;;;;;5015559;28;101278;-82
2023/09/15 03:06:28;;;;;;;8.95;3.70;;;;;;;;;;5017356;28;98669;-82
2023/09/15 03:08:56;;;;;;;13.73;4.28;;;;;;;;;;5016671;28;98678;-82
2023/09/15 03:11:26;;;;;;;8.57;3.30;;;;;;;;;;5016080;28;100344;-82
2023/09/15 03:14:00;;;;;;;8.82;3.25;;;;;;;;;;5014429;28;98182;-81
2023/09/15 03:16:29;;;;;;;7.72;3.70;;;;;;;;;;5017165;28;100451;-81
2023/09/15 03:19:03;;;;;;;7.90;3.90;;;;;;;;;;5004123;28;100837;-81
2023/09/15 03:21:34;;;;;;;6.95;3.42;;;;;;;;;;5001125;28;101261;-82
2023/09/15 03:24:04;;;;;;;6.95;3.30;;;;;;;;;;5014626;28;100881;-81
2023/09/15 03:26:32;;;;;;;7.25;3.50;;;;;;;;;;5016560;28;98199;-81
2023/09/15 03:29:02;;;;;;;6.57;3.22;;;;;;;;;;5016286;28;101013;-81
2023/09/15 03:31:30;;;;;;;8.13;3.53;;;;;;;;;;5023255;28;99394;-82
2023/09/15 03:33:57;;;;;;;9.20;3.75;;;;;;;;;;5022862;28;98159;-81
2023/09/15 03:36:37;;;;;;;7.28;3.50;;;;;;;;;;5023542;28;98675;-81
2023/09/15 03:39:06;;;;;;;6.85;3.20;;;;;;;;;;5022489;28;101165;-81
2023/09/15 03:41:34;;;;;;;6.88;3.13;;;;;;;;;;5038460;28;97737;-81
2023/09/15 03:44:05;;;;;;;6.97;3.30;;;;;;;;;;5009313;28;101626;-81
2023/09/15 03:46:34;;;;;;;6.47;3.30;;;;;;;;;;5026260;28;98261;-81
2023/09/15 03:49:06;;;;;;;7.47;3.50;;;;;;;;;;5025549;28;100475;-81
2023/09/15 03:51:35;;;;;;;8.13;3.47;;;;;;;;;;5025696;28;99713;-81
2023/09/15 03:54:03;;;;;;;7.28;3.20;;;;;;;;;;5043872;28;98178;-82
2023/09/15 03:56:33;;;;;;;6.43;3.42;;;;;;;;;;5026131;28;100936;-81
2023/09/15 03:59:03;;;;;;;7.05;3.40;;;;;;;;;;5025676;28;100683;-80
2023/09/15 04:01:32;;;;;;;6.63;3.20;;;;;;;;;;5042305;28;98203;-81
2023/09/15 04:04:09;;;;;;;5.65;2.90;;;;;;;;;;5017921;28;100510;-81
2023/09/15 04:06:36;;;;;;;6.45;2.90;;;;;;;;;;5026916;28;98244;-81
2023/09/15 04:09:12;;;;;;;6.80;3.20;;;;;;;;;;5044250;28;99781;-81
2023/09/15 04:11:43;;;;;;;;;;;;;;;;;;5027267;28;98587;-82
2023/09/15 04:14:14;;;;;;;6.45;3.13;;;;;;;;;;5034904;28;98872;-81
2023/09/15 04:16:44;;;;;;;7.53;3.22;;;;;;;;;;5026497;28;101397;-82
2023/09/15 04:19:14;;;;;;;7.88;3.40;;;;;;;;;;4992275;28;99244;-82
2023/09/15 04:21:43;;;;;;;6.20;3.17;;;;;;;;;;5011344;28;98337;-81
2023/09/15 04:24:14;;;;;;;5.82;3.25;;;;;;;;;;5025727;28;99448;-81
2023/09/15 04:26:42;;;;;;;6.40;3.00;;;;;;;;;;5029137;28;98963;-81
2023/09/15 04:29:10;;;;;;;6.43;2.95;;;;;;;;;;5025866;28;100651;-82
2023/09/15 04:31:38;;;;;;;7.88;3.28;;;;;;;;;;5025989;28;100125;-82
2023/09/15 04:34:06;;;;;;;7.63;3.30;;;;;;;;;;5025704;28;99178;-82
2023/09/15 04:36:34;;;;;;;6.75;3.42;;;;;;;;;;5024770;28;100022;-82
2023/09/15 04:39:05;;;;;;;7.63;3.42;;;;;;;;;;5024680;28;101644;-82
2023/09/15 04:41:33;;;;;;;6.28;3.20;;;;;;;;;;5024280;28;98277;-82
2023/09/15 04:44:00;;;;;;;;;;;;;;;;;;5041216;28;99865;-81
2023/09/15 04:46:31;;;;;;;7.10;3.33;;;;;;;;;;5026854;28;101484;-81
2023/09/15 04:49:02;;;;;;;6.47;3.25;;;;;;;;;;5040707;28;98473;-82
2023/09/15 04:51:41;;;;;;;6.57;3.20;;;;;;;;;;5022107;28;101366;-82
2023/09/15 04:54:12;;;;;;;9.02;3.70;;;;;;;;;;5022445;28;98250;-81
2023/09/15 04:56:46;;;;;;;9.80;3.17;;;;;;;;;;5023537;28;99689;-82
2023/09/15 04:59:19;;;;;;;6.07;3.00;;;;;;;;;;5021729;28;100253;-81
2023/09/15 05:01:50;;;;;;;7.63;3.70;;;;;;;;;;5017240;28;98217;-82
2023/09/15 05:04:23;;;;;;;6.95;3.38;;;;;;;;;;5012937;28;98807;-81
2023/09/15 05:07:02;;;;;;;6.35;3.20;;;;;;;;;;5021452;28;100296;-81
2023/09/15 05:09:31;;;;;;;7.72;3.35;;;;;;;;;;5009010;28;98287;-81
2023/09/15 05:12:04;;;;;;;7.38;3.45;;;;;;;;;;5013188;28;99794;-81
2023/09/15 05:14:47;;;;;;;7.75;3.70;;;;;;;;;;5040501;28;98746;-81
2023/09/15 05:17:35;;;;;;;7.05;2.90;;;;;;;;;;5006654;28;100079;-81
2023/09/15 05:20:23;;;;;;;7.50;3.38;;;;;;;;;;5018559;28;98531;-81
2023/09/15 05:23:00;;;;;;;6.75;3.25;;;;;;;;;;4994607;28;97548;-81
2023/09/15 05:25:45;;;;;;;6.68;3.08;;;;;;;;;;5020938;28;100375;-81
2023/09/15 05:28:17;;;;;;;8.20;3.30;;;;;;;;;;5004950;28;98657;-81
2023/09/15 05:30:49;;;;;;;6.47;3.50;;;;;;;;;;5038279;28;98906;-82
2023/09/15 05:33:21;;;;;;;9.13;3.97;;;;;;;;;;5024092;28;101393;-80
2023/09/15 05:36:04;;;;;;;6.95;3.33;;;;;;;;;;5038810;28;98199;-81
2023/09/15 05:38:34;;;;;;;8.60;3.70;;;;;;;;;;5039367;28;98497;-82
2023/09/15 05:41:04;;;;;;;7.75;3.58;;;;;;;;;;5000111;28;100174;-81
2023/09/15 05:43:35;;;;;;;7.10;3.60;;;;;;;;;;5017830;28;98404;-81
2023/09/15 05:46:09;;;;;;;8.50;3.70;;;;;;;;;;5019010;28;98491;-81
2023/09/15 05:48:38;;;;;;;6.90;3.75;;;;;;;;;;5017770;28;98455;-81
2023/09/15 05:51:08;;;;;;;7.95;3.70;;;;;;;;;;5017471;28;98244;-81
2023/09/15 05:53:38;;;;;;;7.45;3.42;;;;;;;;;;5018069;28;98406;-81
2023/09/15 05:56:11;;;;;;;10.82;3.42;;;;;;;;;;5021615;28;99773;-81
2023/09/15 05:58:38;;;;;;;6.40;3.10;;;;;;;;;;5018651;28;99449;-81
2023/09/15 06:01:09;;;;;;;7.10;3.17;;;;;;;;;;5018373;28;98543;-81
2023/09/15 06:03:42;;;;;;;8.63;4.10;;;;;;;;;;5003056;28;98336;-81
2023/09/15 06:06:18;;;;;;;9.85;3.75;;;;;;;;;;5019209;28;98534;-81
2023/09/15 06:08:53;;;;;;;8.25;3.65;;;;;;;;;;5018285;28;98759;-81
2023/09/15 06:11:21;;;;;;;9.07;3.90;;;;;;;;;;5011270;28;98714;-81
2023/09/15 06:13:54;;;;;;;7.60;3.42;;;;;;;;;;5017489;28;98310;-81
2023/09/15 06:16:22;;;;;;;9.43;3.45;;;;;;;;;;5016796;28;100641;-81
2023/09/15 06:18:53;;;;;;;6.95;3.30;;;;;;;;;;5007193;28;98555;-81
2023/09/15 06:21:24;;;;;;;10.07;3.58;;;;;;;;;;5003783;28;99335;-80
2023/09/15 06:23:51;;;;;;;;;;;;;;;;;;5016957;28;98574;-77
2023/09/15 06:26:18;;;;;;;8.07;3.75;;;;;;;;;;5017792;28;120749;-77
2023/09/15 06:28:44;;;;;;;7.63;3.50;;;;;;;;;;5016677;28;98646;-77
2023/09/15 06:31:11;;;;;;;7.10;3.50;;;;;;;;;;5017038;28;98200;-77
2023/09/15 06:33:38;;;;;;;8.63;3.70;;;;;;;;;;5017970;28;98206;-76
2023/09/15 06:36:15;;;;;;;7.65;3.53;;;;;;;;;;5017633;28;98871;-81
2023/09/15 06:38:46;;;;;;;7.35;3.58;;;;;;;;;;5019014;28;97767;-80
2023/09/15 06:41:13;;;;;;;10.93;4.15;;;;;;;;;;5028529;28;98272;-81
2023/09/15 06:43:43;;;;;;;9.15;3.80;;;;;;;;;;5038369;28;98334;-81
2023/09/15 06:46:11;;;;;;;8.30;3.92;;;;;;;;;;5037506;28;98901;-82
2023/09/15 06:48:38;;;;;;;13.30;3.90;;;;;;;;;;5037562;28;98780;-83
2023/09/15 06:51:06;;;;;;;9.80;4.20;;;;;;;;;;5020258;28;98810;-82
2023/09/15 06:53:33;;;;;;;9.77;4.00;;;;;;;;;;5037947;28;98348;-81
2023/09/15 06:56:00;;;;;;;9.68;4.03;;;;;;;;;;5037827;28;98713;-81
2023/09/15 06:58:28;;;;;;;9.68;4.10;;;;;;;;;;5020044;28;98244;-81
2023/09/15 07:00:55;;;;;;;;;;;;;;;;;;5023746;28;98461;-80
2023/09/15 07:03:26;;;;;;;8.85;3.58;;;;;;;;;;5012398;28;98657;-82
2023/09/15 07:05:54;;;;;;;9.02;4.20;;;;;;;;;;5037153;28;98265;-81
2023/09/15 07:08:20;;;;;;;9.07;3.78;;;;;;;;;;5034401;28;98909;-83
2023/09/15 07:10:51;;;;;;;8.48;3.42;;;;;;;;;;5029149;28;98936;-83
2023/09/15 07:13:18;;;;;;;7.07;3.40;;;;;;;;;;5032653;28;99427;-82
2023/09/15 07:15:45;;;;;;;;;;;;;;;;;;5002854;28;101350;-80
2023/09/15 07:18:23;;;;;;;7.63;3.35;;;;;;;;;;5015885;28;98215;-83
2023/09/15 07:21:02;;;;;;;9.18;3.55;;;;;;;;;;5000559;28;98977;-84
2023/09/15 07:23:32;;;;;;;7.60;3.25;;;;;;;;;;5026703;28;98619;-84
2023/09/15 07:25:59;;;;;;;8.45;3.30;;;;;;;;;;5037790;28;98260;-84
2023/09/15 07:28:28;;;;;;;10.57;3.83;;;;;;;;;;5037584;28;97874;-83
2023/09/15 07:31:04;;;;;;;10.25;3.75;;;;;;;;;;5002296;28;98173;-84
2023/09/15 07:33:37;;;;;;;8.68;3.60;;;;;;;;;;5019869;28;98498;-83
2023/09/15 07:36:11;;;;;;;11.73;4.30;;;;;;;;;;5037490;28;99904;-83
2023/09/15 07:38:39;;;;;;;8.75;3.50;;;;;;;;;;5035583;28;98374;-85
2023/09/15 07:41:13;;;;;;;8.93;3.50;;;;;;;;;;5027991;28;98484;-82
2023/09/15 07:43:43;;;;;;;11.98;3.85;;;;;;;;;;5024344;28;98945;-83
2023/09/15 07:46:13;;;;;;;11.63;4.10;;;;;;;;;;5018203;28;98315;-83
2023/09/15 07:48:42;;;;;;;8.77;3.72;;;;;;;;;;5037105;28;98690;-85
2023/09/15 07:51:11;;;;;;;10.93;3.72;;;;;;;;;;5033641;28;98346;-84
2023/09/15 07:53:39;;;;;;;9.85;4.20;;;;;;;;;;5018858;28;98351;-83
2023/09/15 07:56:24;;;;;;;8.27;3.40;;;;;;;;;;5032717;28;98631;-82
2023/09/15 07:58:56;;;;;;;10.20;4.30;;;;;;;;;;5010551;28;98210;-83
2023/09/15 08:01:25;;;;;;;9.98;4.50;;;;;;;;;;5029830;28;98896;-83
2023/09/15 08:04:08;;;;;;;7.80;3.25;;;;;;;;;;5025688;28;98718;-84
2023/09/15 08:06:55;;;;;;;9.80;3.50;;;;;;;;;;5016888;28;98328;-85
2023/09/15 08:09:29;;;;;;;13.65;3.45;;;;;;;;;;5046614;22;100800;-84
2023/09/15 08:11:59;;;;;;;10.35;3.13;;;;;;;;;;5017219;28;98707;-87
2023/09/15 08:14:26;;;;;;;10.13;3.00;;;;;;;;;;5020078;28;100219;-86
2023/09/15 08:16:53;;;;;;;7.32;2.55;;;;;;;;;;5024859;27;99169;-88
2023/09/15 08:19:20;;;;;;;5.22;2.33;;;;;;;;;;5004244;28;97863;-86
2023/09/15 08:21:47;;;;;;;;;;;;;;;;;;5029457;28;98767;-88
2023/09/15 08:24:13;;;;;;;6.15;2.50;;;;;;;;;;5016531;28;99248;-86
2023/09/15 08:26:40;;;;;;;13.10;2.65;;;;;;;;;;5023895;28;99438;-86
2023/09/15 08:29:11;;;;;;;7.80;2.47;;;;;;;;;;5031862;28;99353;-87
2023/09/15 08:31:39;;;;;;;7.03;2.50;;;;;;;;;;4997487;28;99396;-86
2023/09/15 08:34:05;;;;;;;5.57;2.40;;;;;;;;;;5010580;28;99224;-87
2023/09/15 08:36:32;;;;;;;5.55;2.05;;;;;;;;;;5028438;28;98636;-87
2023/09/15 08:38:59;;;;;;;5.53;2.10;;;;;;;;;;5023525;28;98497;-87
2023/09/15 08:41:31;;;;;;;5.40;2.25;;;;;;;;;;5012891;28;98622;-87
2023/09/15 08:43:58;;;;;;;5.97;2.42;;;;;;;;;;5003744;28;99042;-86
2023/09/15 08:46:25;;;;;;;6.47;2.22;;;;;;;;;;5006344;28;99387;-85
2023/09/15 08:48:53;;;;;;;6.72;2.35;;;;;;;;;;5007506;28;100045;-86
2023/09/15 08:51:24;;;;;;;6.43;2.47;;;;;;;;;;5020121;28;100188;-87
2023/09/15 08:53:56;;;;;;;6.40;2.30;;;;;;;;;;5002558;28;99200;-87
2023/09/15 08:56:23;;;;;;;5.45;2.20;;;;;;;;;;4989530;28;101829;-87
2023/09/15 08:58:50;;;;;;;;;;;;;;;;;;4998996;28;98561;-86
2023/09/15 09:01:18;;;;;;;6.38;2.20;;;;;;;;;;5006621;28;98721;-84
2023/09/15 09:03:45;;;;;;;5.60;2.10;;;;;;;;;;5001562;28;99109;-85
2023/09/15 09:06:13;;;;;;;5.13;2.10;;;;;;;;;;4987659;28;98859;-86
2023/09/15 09:08:41;;;;;;;5.55;2.30;;;;;;;;;;4999824;28;98876;-86
2023/09/15 09:11:08;;;;;;;6.35;2.13;;;;;;;;;;5004770;28;100004;-86
2023/09/15 09:13:34;;;;;;;5.82;2.00;;;;;;;;;;4990749;28;98922;-88
2023/09/15 09:16:12;;;;;;;4.75;2.20;;;;;;;;;;5005282;28;99958;-88
2023/09/15 09:18:40;;;;;;;7.47;2.40;;;;;;;;;;4991701;28;98787;-88
2023/09/15 09:21:07;;;;;;;5.47;2.00;;;;;;;;;;5007313;28;99991;-87
2023/09/15 09:23:34;;;;;;;5.80;1.90;;;;;;;;;;5007078;28;99096;-87
2023/09/15 09:26:09;;;;;;;5.93;2.13;;;;;;;;;;5007554;28;98527;-86
2023/09/15 09:28:36;;;;;;;8.63;2.13;;;;;;;;;;4998520;28;98832;-86
2023/09/15 09:31:03;;;;;;;6.00;2.00;;;;;;;;;;5007251;28;99211;-86
2023/09/15 09:33:30;;;;;;;;;;;;;;;;;;4980351;28;97840;-87
2023/09/15 09:35:57;;;;;;;6.22;2.35;;;;;;;;;;5012531;28;110713;-87
2023/09/15 09:38:25;;;;;;;5.68;2.13;;;;;;;;;;4997060;28;98557;-87
2023/09/15 09:40:55;;;;;;;7.53;2.20;;;;;;;;;;5008976;28;100419;-87
2023/09/15 09:43:21;;;;;;;6.70;2.33;;;;;;;;;;4994956;28;100894;-87
2023/09/15 09:45:51;;;;;;;8.52;2.45;;;;;;;;;;5006814;28;100723;-87
2023/09/15 09:48:18;;;;;;;6.00;2.10;;;;;;;;;;5004528;28;99219;-90
2023/09/15 09:50:48;;;;;;;5.82;2.10;;;;;;;;;;5007855;28;99125;-87
2023/09/15 09:53:15;;;;;;;7.28;2.10;;;;;;;;;;4989955;28;98579;-88
2023/09/15 09:55:42;;;;;;;6.97;2.25;;;;;;;;;;5007668;28;98977;-88
2023/09/15 09:58:12;;;;;;;6.90;2.20;;;;;;;;;;5010795;28;98668;-88
2023/09/15 10:00:39;;;;;;;7.25;2.50;;;;;;;;;;5008419;28;99028;-88
2023/09/15 10:03:06;;;;;;;6.55;2.25;;;;;;;;;;4972531;28;102238;-87
2023/09/15 10:05:34;;;;;;;6.18;2.50;;;;;;;;;;5006855;28;99269;-87
2023/09/15 10:08:02;;;;;;;7.28;2.40;;;;;;;;;;5006990;28;99603;-87
2023/09/15 10:10:29;;;;;;;6.10;2.30;;;;;;;;;;5006837;28;99251;-85
2023/09/15 10:12:56;;;;;;;6.45;2.20;;;;;;;;;;4976961;28;98867;-84
2023/09/15 10:15:22;;;;;;;7.13;2.10;;;;;;;;;;5007770;28;99101;-87
2023/09/15 10:17:50;;;;;;;5.85;2.25;;;;;;;;;;4992049;28;100420;-87
2023/09/15 10:20:17;;;;;;;7.45;2.25;;;;;;;;;;5013960;28;98762;-87
2023/09/15 10:22:45;;;;;;;6.25;2.25;;;;;;;;;;4991033;28;99078;-88
2023/09/15 10:25:16;;;;;;;6.22;2.15;;;;;;;;;;5030298;28;99005;-87
2023/09/15 10:27:44;;;;;;;6.07;2.30;;;;;;;;;;5026295;28;98614;-87
2023/09/15 10:30:11;;;;;;;4.85;2.10;;;;;;;;;;5005588;28;100633;-88
2023/09/15 10:32:38;;;;;;;5.07;2.20;;;;;;;;;;5010885;28;99172;-88
2023/09/15 10:35:05;;;;;;;6.65;2.30;;;;;;;;;;4994604;28;101874;-87
2023/09/15 10:37:33;;;;;;;7.50;2.30;;;;;;;;;;4996680;28;99854;-87
2023/09/15 10:40:01;;;;;;;5.45;2.17;;;;;;;;;;4976305;28;98994;-86
2023/09/15 10:42:28;;;;;;;6.47;2.17;;;;;;;;;;4980086;28;99974;-87
2023/09/15 10:44:54;;;;;;;6.35;2.28;;;;;;;;;;5006721;28;98586;-88
2023/09/15 10:47:21;;;;;;;5.25;2.10;;;;;;;;;;4998651;28;99040;-87
2023/09/15 10:49:50;;;;;;;5.97;2.38;;;;;;;;;;4996019;28;99592;-87
2023/09/15 10:52:16;;;;;;;6.72;2.38;;;;;;;;;;5010291;28;99147;-88
2023/09/15 10:54:43;;;;;;;4.82;1.92;;;;;;;;;;5015044;28;99552;-88
2023/09/15 10:57:10;;;;;;;5.35;2.40;;;;;;;;;;5021383;28;99397;-89
2023/09/15 10:59:37;;;;;;;5.93;2.28;;;;;;;;;;4989612;28;98869;-89
2023/09/15 11:02:04;;;;;;;6.05;2.10;;;;;;;;;;4975500;28;101654;-91
2023/09/15 11:04:31;;;;;;;5.32;1.95;;;;;;;;;;4994632;28;98574;-90
2023/09/15 11:06:59;;;;;;;6.75;2.45;;;;;;;;;;5007263;28;98619;-90
2023/09/15 11:09:25;;;;;;;5.07;2.13;;;;;;;;;;5006064;28;99140;-89
2023/09/15 11:11:52;;;;;;;5.90;2.08;;;;;;;;;;5007083;28;99353;-88
2023/09/15 11:14:20;;;;;;;7.25;2.10;;;;;;;;;;4983770;28;98775;-88
2023/09/15 11:16:50;;;;;;;5.95;2.20;;;;;;;;;;4977884;28;99419;-89
2023/09/15 11:19:17;;;;;;;7.60;2.30;;;;;;;;;;5003393;28;99639;-88
2023/09/15 11:21:45;;;;;;;4.85;1.98;;;;;;;;;;5004506;28;99525;-88
2023/09/15 11:24:11;;;;;;;5.20;2.00;;;;;;;;;;5002582;28;99193;-86
2023/09/15 11:26:45;;;;;;;5.82;2.00;;;;;;;;;;5007956;28;98951;-88
2023/09/15 11:29:12;;;;;;;5.78;2.15;;;;;;;;;;5005589;28;98910;-90
2023/09/15 11:31:39;;;;;;;5.90;2.20;;;;;;;;;;5007139;28;98450;-90
2023/09/15 11:34:06;;;;;;;5.97;2.10;;;;;;;;;;4987884;28;101602;-89
2023/09/15 11:36:35;;;;;;;4.90;2.03;;;;;;;;;;5005396;28;98617;-89
2023/09/15 11:39:10;;;;;;;4.70;1.90;;;;;;;;;;4987496;28;99387;-90
2023/09/15 11:41:53;;;;;;;5.43;1.80;;;;;;;;;;4994531;28;99176;-89
2023/09/15 11:44:26;;;;;;;5.15;2.00;;;;;;;;;;4992385;28;100088;-90
2023/09/15 11:46:55;;;;;;;4.95;1.95;;;;;;;;;;4993284;28;99008;-90
2023/09/15 11:49:22;;;;;;;5.05;1.90;;;;;;;;;;4981295;28;100125;-90
2023/09/15 11:51:49;;;;;;;4.65;1.92;;;;;;;;;;4999167;28;98744;-91
2023/09/15 11:54:16;;;;;;;5.05;1.88;;;;;;;;;;5010192;28;98471;-88
2023/09/15 11:56:43;;;;;;;4.28;1.85;;;;;;;;;;5009207;28;98995;-88
2023/09/15 11:59:13;;;;;;;5.40;1.90;;;;;;;;;;5010441;28;98773;-88
2023/09/15 12:01:40;;;;;;;5.22;1.98;;;;;;;;;;5012254;28;97814;-88
2023/09/15 12:04:07;;;;;;;4.43;1.98;;;;;;;;;;5016530;28;98585;-88
2023/09/15 12:06:40;;;;;;;4.00;1.80;;;;;;;;;;5007426;28;98599;-88
2023/09/15 12:09:10;;;;;;;3.47;1.70;;;;;;;;;;5019500;28;99319;-86
2023/09/15 12:11:40;;;;;;;4.30;1.90;;;;;;;;;;5010267;28;98520;-90
2023/09/15 12:14:07;;;;;;;4.78;1.90;;;;;;;;;;5024729;28;98623;-87
2023/09/15 12:16:37;;;;;;;5.20;1.98;;;;;;;;;;5016374;28;98782;-86
2023/09/15 12:19:04;;;;;;;5.15;2.10;;;;;;;;;;5023558;28;98486;-90
2023/09/15 12:21:31;;;;;;;4.63;1.70;;;;;;;;;;5007875;28;100577;-89
2023/09/15 12:24:11;;;;;;;4.32;1.80;;;;;;;;;;5028151;28;99069;-90
2023/09/15 12:26:40;;;;;;;5.22;1.80;;;;;;;;;;5012935;28;97394;-89
2023/09/15 12:29:06;;;;;;;4.85;1.80;;;;;;;;;;5028705;28;99050;-90
2023/09/15 12:31:46;;;;;;;4.15;1.92;;;;;;;;;;5031087;28;98285;-90
2023/09/15 12:34:19;;;;;;;3.78;1.90;;;;;;;;;;4985452;28;101418;-89
2023/09/15 12:36:48;;;;;;;4.75;1.80;;;;;;;;;;5025989;27;99663;-89
2023/09/15 12:39:15;;;;;;;5.78;1.92;;;;;;;;;;5031994;27;98489;-88
2023/09/15 12:41:43;;;;;;;3.63;1.77;;;;;;;;;;4998914;28;98567;-89
2023/09/15 12:44:10;;;;;;;4.47;1.90;;;;;;;;;;5010079;28;98944;-88
2023/09/15 12:46:37;;;;;;;5.00;1.98;;;;;;;;;;5011243;28;98818;-88
2023/09/15 12:49:04;;;;;;;5.80;2.00;;;;;;;;;;5027485;28;98970;-90
2023/09/15 12:51:30;;;;;;;4.20;1.80;;;;;;;;;;5014500;28;97990;-90
2023/09/15 12:53:57;;;;;;;6.32;2.00;;;;;;;;;;5015869;28;98553;-89
2023/09/15 12:56:23;;;;;;;4.05;1.85;;;;;;;;;;5011775;28;98655;-89
2023/09/15 12:58:51;;;;;;;5.15;1.80;;;;;;;;;;5011364;28;99522;-89
2023/09/15 13:01:20;;;;;;;4.55;1.83;;;;;;;;;;5006094;28;100737;-90
2023/09/15 13:03:47;;;;;;;4.22;1.67;;;;;;;;;;4998102;28;100235;-89
2023/09/15 13:06:14;;;;;;;5.70;2.13;;;;;;;;;;4999953;28;98601;-89
2023/09/15 13:08:42;;;;;;;5.07;2.00;;;;;;;;;;4996748;28;100500;-90
2023/09/15 13:11:08;;;;;;;5.25;1.98;;;;;;;;;;5010253;28;99264;-90
2023/09/15 13:13:35;;;;;;;5.60;2.08;;;;;;;;;;5013752;28;98834;-90
2023/09/15 13:16:01;;;;;;;6.05;1.90;;;;;;;;;;4977476;28;101641;-89
2023/09/15 13:18:28;;;;;;;7.03;2.10;;;;;;;;;;4987821;28;98730;-89
2023/09/15 13:20:55;;;;;;;3.88;1.83;;;;;;;;;;4973506;28;99563;-90
2023/09/15 13:23:22;;;;;;;5.70;1.95;;;;;;;;;;5010496;28;100193;-90
2023/09/15 13:25:48;;;;;;;4.43;2.00;;;;;;;;;;5017961;28;99030;-89
2023/09/15 13:28:15;;;;;;;4.78;2.00;;;;;;;;;;5001611;28;100847;-91
2023/09/15 13:30:44;;;;;;;5.07;2.00;;;;;;;;;;4985191;28;98638;-91
2023/09/15 13:33:10;;;;;;;5.60;2.00;;;;;;;;;;4992793;28;98852;-90
2023/09/15 13:35:37;;;;;;;4.07;1.80;;;;;;;;;;5016914;28;98961;-91
2023/09/15 13:38:04;;;;;;;5.72;2.00;;;;;;;;;;5009906;28;99048;-90
2023/09/15 13:40:30;;;;;;;4.53;1.85;;;;;;;;;;4993217;28;100166;-90
2023/09/15 13:42:58;;;;;;;4.15;1.80;;;;;;;;;;5010490;28;99220;-91
2023/09/15 13:45:25;;;;;;;6.18;1.90;;;;;;;;;;5016544;28;98821;-90
2023/09/15 13:47:51;;;;;;;4.15;1.85;;;;;;;;;;4973343;28;101896;-89
2023/09/15 13:50:18;;;;;;;5.28;2.00;;;;;;;;;;5008664;28;99696;-90
2023/09/15 13:52:45;;;;;;;4.50;1.90;;;;;;;;;;5009872;28;98867;-89
2023/09/15 13:55:14;;;;;;;3.60;1.80;;;;;;;;;;5011394;28;98778;-89
2023/09/15 13:57:40;;;;;;;5.68;2.13;;;;;;;;;;5014122;28;99315;-89
2023/09/15 14:00:09;;;;;;;4.68;1.80;;;;;;;;;;5010945;28;98852;-89
2023/09/15 14:02:38;;;;;;;5.15;1.75;;;;;;;;;;5011536;28;98813;-89
2023/09/15 14:05:06;;;;;;;5.40;2.05;;;;;;;;;;5019225;28;97802;-89
2023/09/15 14:07:33;;;;;;;4.70;2.00;;;;;;;;;;4996515;28;100522;-88
2023/09/15 14:10:01;;;;;;;5.45;1.98;;;;;;;;;;4994510;28;100495;-88
2023/09/15 14:12:28;;;;;;;5.63;1.90;;;;;;;;;;4992862;28;99653;-89
2023/09/15 14:14:54;;;;;;;4.57;1.70;;;;;;;;;;4992492;28;99629;-88
2023/09/15 14:17:23;;;;;;;5.43;1.90;;;;;;;;;;5006700;28;99521;-86
2023/09/15 14:19:49;;;;;;;5.38;1.83;;;;;;;;;;5012937;28;98958;-86
2023/09/15 14:22:16;;;;;;;5.43;2.10;;;;;;;;;;5005109;28;99070;-89
2023/09/15 14:24:42;;;;;;;7.15;2.00;;;;;;;;;;4997838;28;98532;-88
2023/09/15 14:27:09;;;;;;;5.15;1.90;;;;;;;;;;5003735;28;100976;-88
2023/09/15 14:29:36;;;;;;;4.47;1.95;;;;;;;;;;5023214;28;97766;-88
2023/09/15 14:32:03;;;;;;;5.13;1.88;;;;;;;;;;5020488;28;99173;-88
2023/09/15 14:34:30;;;;;;;4.47;1.95;;;;;;;;;;5018825;28;98526;-87
2023/09/15 14:37:00;;;;;;;5.50;1.90;;;;;;;;;;4977868;28;102540;-89
2023/09/15 14:39:27;;;;;;;5.13;2.00;;;;;;;;;;5019296;28;98405;-89
2023/09/15 14:41:54;;;;;;;4.95;2.00;;;;;;;;;;5017015;28;98764;-88
2023/09/15 14:44:21;;;;;;;5.68;2.20;;;;;;;;;;5000376;28;98570;-87
2023/09/15 14:46:48;;;;;;;4.57;1.92;;;;;;;;;;5015239;28;98465;-89
2023/09/15 14:49:15;;;;;;;5.32;2.28;;;;;;;;;;5021175;28;99233;-87
2023/09/15 14:51:42;;;;;;;5.85;2.10;;;;;;;;;;5022213;28;98612;-87
2023/09/15 14:54:08;;;;;;;6.13;2.38;;;;;;;;;;4986230;28;102678;-88
2023/09/15 14:56:35;;;;;;;;;;;;;;;;;;4994933;28;101128;-87
2023/09/15 14:59:02;;;;;;;9.35;2.60;;;;;;;;;;5022141;28;98565;-88